Gerrard Smith International Airport
MWCB : now visible

Airfield :











YOU CAN JOIN US ON...

 
LOGIN :

Register | Disclaimer

   EN    FR    IT 

 









Legend :    VFR   Marginal VFR   IFR   Intensive IFR   Very Intensive IFR
Visi :
Ceiling :
>= 8 km
>= 3000ft
5 to 8 km
1000 to 3000 ft
1500m to 5 km
500 to 1000 ft
800 to 1500m
200 to 500 ft
< 800m
< 200 ft
Symbols :   Thunderstorms  Fog  Heavy snow  Heavy precipitations  Wind > 20 kt






- Airport Elevation : 8 ft
- IATA code : CYB


MWCB - Gerrard Smith International

CURRENT METAR :
  • 092000Z 10011KT 9999 FEW018 30/23 Q1014

EXPIRED METARs :
  • 091900Z 10009KT 9999 SCT016 29/23 Q1015
  • 091800Z 10008KT 9999 SCT016 29/23 Q1015

TAF TAF MWCB
Valid from the 09 at 18:00 until the 10 at 18:00 UTC


091700Z 0918/1018 07015KT 9999 SCT018



MET'MAP, your aeronautical weather chart ! - Copyright ORBIFLY December 2007 - Disclaimer

ORBIFLY MET'MAP TEAM :

Programming & Development : Alexandra Zaïnal
Concept & original design : Baudouin d'Aumeries
Assistance for programming : Marc-Olivier Méhu
Technical & hardware support : Manuel Goepfert

Contact : metmap@orbifly.com




SOURCES & CREDITS :

   NOAA       Earth
Advisory